createdAt,value
2018-12-09T00:02:26.790Z,363.00
2018-12-09T00:05:00.978Z,344.75
2018-12-09T00:07:36.135Z,353.50
2018-12-09T00:10:07.915Z,343.25
2018-12-09T00:12:39.461Z,344.00
2018-12-09T00:15:11.620Z,338.25
2018-12-09T00:17:43.550Z,340.50
2018-12-09T00:20:15.264Z,317.50
2018-12-09T00:22:46.813Z,307.50
2018-12-09T00:25:18.395Z,336.00
2018-12-09T00:27:50.044Z,340.25
2018-12-09T00:30:23.105Z,334.50
2018-12-09T00:32:54.930Z,320.50
2018-12-09T00:35:26.686Z,348.50
2018-12-09T00:37:58.452Z,318.75
2018-12-09T00:40:31.011Z,336.50
2018-12-09T00:43:03.103Z,328.50
2018-12-09T00:45:35.180Z,331.25
2018-12-09T00:48:06.824Z,338.00
2018-12-09T00:50:39.147Z,295.25
2018-12-09T00:53:11.126Z,321.00
2018-12-09T00:55:43.293Z,336.75
2018-12-09T00:58:15.396Z,370.50
2018-12-09T01:00:47.975Z,391.25
2018-12-09T01:03:19.551Z,382.50
2018-12-09T01:05:54.733Z,361.25
2018-12-09T01:08:26.340Z,355.75
2018-12-09T01:10:58.250Z,386.75
2018-12-09T01:13:30.070Z,360.50
2018-12-09T01:16:01.963Z,414.25
2018-12-09T01:18:34.860Z,391.50
2018-12-09T01:21:07.175Z,386.75
2018-12-09T01:23:39.390Z,378.75
2018-12-09T01:26:11.105Z,418.00
2018-12-09T01:28:43.263Z,389.25
2018-12-09T01:31:16.476Z,390.50
2018-12-09T01:33:48.064Z,433.75
2018-12-09T01:36:20.027Z,412.00
2018-12-09T01:38:52.005Z,430.25
2018-12-09T01:41:24.514Z,419.25
2018-12-09T01:43:56.393Z,430.25
2018-12-09T01:46:27.909Z,390.25
2018-12-09T01:48:59.961Z,415.75
2018-12-09T01:51:31.485Z,409.25
2018-12-09T01:54:14.733Z,452.00
2018-12-09T01:56:46.945Z,391.25
2018-12-09T01:59:18.635Z,405.00
2018-12-09T02:01:51.079Z,383.00
2018-12-09T02:04:23.380Z,406.50
2018-12-09T02:06:54.856Z,415.25
2018-12-09T02:09:26.411Z,379.25
2018-12-09T02:11:58.003Z,431.00
2018-12-09T02:14:29.736Z,401.25
2018-12-09T02:17:01.679Z,464.50
2018-12-09T02:19:33.133Z,472.00
2018-12-09T02:22:04.801Z,517.00
2018-12-09T02:24:36.321Z,469.75
2018-12-09T02:27:08.818Z,465.25
2018-12-09T02:29:41.026Z,474.25
2018-12-09T02:32:13.732Z,443.75
2018-12-09T02:34:54.673Z,483.00
2018-12-09T02:37:26.515Z,483.50
2018-12-09T02:39:58.780Z,454.25
2018-12-09T02:42:31.004Z,481.50
2018-12-09T02:45:02.556Z,476.00
2018-12-09T02:47:34.341Z,503.00
2018-12-09T02:50:06.410Z,492.75
2018-12-09T02:52:38.381Z,481.50
2018-12-09T02:55:10.399Z,487.50
2018-12-09T02:57:43.090Z,499.80
2018-12-09T03:00:15.560Z,523.60
2018-12-09T03:02:47.862Z,495.20
2018-12-09T03:05:19.742Z,520.40
2018-12-09T03:07:51.506Z,429.50
2018-12-09T03:10:24.160Z,482.75
2018-12-09T03:12:55.927Z,499.75
2018-12-09T03:15:27.477Z,496.50
2018-12-09T03:17:59.083Z,519.50
2018-12-09T03:20:30.682Z,533.50
2018-12-09T03:23:02.846Z,528.80
2018-12-09T03:25:34.300Z,544.60
2018-12-09T03:28:06.617Z,511.60
2018-12-09T03:30:38.756Z,501.00
2018-12-09T03:33:11.091Z,518.00
2018-12-09T03:35:42.982Z,503.00
2018-12-09T03:38:15.573Z,499.25
2018-12-09T03:40:48.238Z,451.25
2018-12-09T03:43:21.171Z,458.75
2018-12-09T03:45:52.587Z,483.25
2018-12-09T03:48:25.784Z,494.75
2018-12-09T03:50:57.487Z,478.75
2018-12-09T03:53:29.046Z,471.25
2018-12-09T03:56:00.623Z,480.75
2018-12-09T03:58:32.297Z,436.75
2018-12-09T04:01:03.700Z,438.50
2018-12-09T04:03:36.830Z,452.75
2018-12-09T04:06:08.285Z,433.50
2018-12-09T04:08:40.073Z,487.50
2018-12-09T04:11:11.698Z,419.50
2018-12-09T04:13:43.736Z,471.00
2018-12-09T04:16:15.533Z,433.50
2018-12-09T04:18:49.516Z,450.00
2018-12-09T04:21:21.632Z,428.00
2018-12-09T04:23:53.397Z,375.00
2018-12-09T04:26:25.138Z,373.50
2018-12-09T04:28:57.186Z,381.50
2018-12-09T04:31:28.968Z,382.50
2018-12-09T04:34:01.289Z,392.00
2018-12-09T04:36:32.926Z,344.00
2018-12-09T04:39:05.393Z,365.50
2018-12-09T04:41:38.013Z,332.75
2018-12-09T04:44:10.423Z,328.00
2018-12-09T04:46:42.108Z,315.25
2018-12-09T04:49:14.719Z,329.25
2018-12-09T04:51:58.001Z,324.75
2018-12-09T04:54:30.241Z,310.25
2018-12-09T04:57:01.618Z,306.00
2018-12-09T04:59:36.146Z,293.75
2018-12-09T05:02:07.728Z,281.00
2018-12-09T05:04:40.102Z,250.75
2018-12-09T05:07:11.747Z,329.00
2018-12-09T05:09:43.659Z,310.25
2018-12-09T05:12:17.397Z,301.75
2018-12-09T05:14:49.406Z,312.75
2018-12-09T05:17:20.900Z,328.50
2018-12-09T05:19:52.575Z,289.00
2018-12-09T05:22:25.010Z,315.75
2018-12-09T05:25:01.251Z,323.50
2018-12-09T05:27:38.296Z,335.75
2018-12-09T05:30:14.904Z,344.00
2018-12-09T05:32:57.318Z,348.50
2018-12-09T05:35:45.199Z,327.75
2018-12-09T05:38:21.777Z,342.75
2018-12-09T05:40:54.253Z,363.50
2018-12-09T05:43:26.678Z,374.75
2018-12-09T05:45:58.732Z,392.25
2018-12-09T05:48:43.035Z,370.75
2018-12-09T05:51:14.615Z,411.00
2018-12-09T05:53:47.250Z,413.50
2018-12-09T05:56:19.290Z,381.00
2018-12-09T05:59:11.370Z,383.00
2018-12-09T06:01:43.229Z,397.00
2018-12-09T06:04:17.971Z,375.25
2018-12-09T06:07:01.338Z,404.50
2018-12-09T06:09:37.766Z,408.25
2018-12-09T06:12:29.068Z,404.25
2018-12-09T06:15:03.901Z,386.75
2018-12-09T06:17:40.384Z,432.25
2018-12-09T06:20:17.388Z,415.00
2018-12-09T06:22:56.146Z,349.75
2018-12-09T06:25:42.293Z,352.50
2018-12-09T06:28:18.749Z,298.50
2018-12-09T06:30:53.926Z,307.75
2018-12-09T06:33:31.010Z,285.50
2018-12-09T06:36:07.706Z,263.25
2018-12-09T06:38:52.547Z,246.75
2018-12-09T06:41:29.413Z,272.75
2018-12-09T06:44:05.625Z,285.25
2018-12-09T06:46:40.907Z,258.50
2018-12-09T06:49:16.447Z,265.00
2018-12-09T06:51:51.157Z,259.75
2018-12-09T06:54:26.354Z,275.00
2018-12-09T06:57:00.075Z,255.50
2018-12-09T06:59:36.691Z,242.75
2018-12-09T07:02:08.014Z,282.75
2018-12-09T07:04:51.466Z,258.50
2018-12-09T07:07:23.272Z,227.25
2018-12-09T07:09:59.947Z,258.00
2018-12-09T07:12:51.784Z,237.75
2018-12-09T07:18:30.650Z,250.25
2018-12-09T07:21:04.387Z,253.75
2018-12-09T07:23:40.212Z,231.25
2018-12-09T07:26:16.884Z,247.75
2018-12-09T07:28:54.406Z,256.00
2018-12-09T07:31:43.339Z,250.00
2018-12-09T07:34:19.570Z,232.25
2018-12-09T07:36:56.421Z,242.75
2018-12-09T07:39:32.587Z,244.50
2018-12-09T07:42:09.364Z,224.80
2018-12-09T07:44:41.043Z,209.20
2018-12-09T07:47:14.519Z,219.80
2018-12-09T07:49:50.780Z,218.40
2018-12-09T07:52:26.125Z,194.60
2018-12-09T07:58:06.483Z,225.60
2018-12-09T08:00:44.382Z,231.00
2018-12-09T08:03:19.431Z,217.80
2018-12-09T08:05:55.950Z,227.80
2018-12-09T08:08:27.439Z,212.00
2018-12-09T08:10:58.905Z,194.80
2018-12-09T08:13:35.031Z,172.40
2018-12-09T08:16:07.763Z,201.60
2018-12-09T08:18:44.657Z,190.20
2018-12-09T08:21:21.139Z,171.20
2018-12-09T08:23:57.262Z,174.40
2018-12-09T08:26:32.086Z,170.00
2018-12-09T08:29:07.837Z,178.40
2018-12-09T08:31:44.731Z,182.80
2018-12-09T08:34:27.029Z,174.60
2018-12-09T08:36:58.448Z,177.40
2018-12-09T08:42:41.397Z,170.00
2018-12-09T08:45:19.418Z,158.00
2018-12-09T08:47:55.872Z,168.60
2018-12-09T08:50:31.283Z,145.20
2018-12-09T08:53:06.079Z,166.20
2018-12-09T08:55:43.178Z,171.60
2018-12-09T08:58:18.351Z,166.40
2018-12-09T09:00:55.014Z,146.20
2018-12-09T09:06:23.617Z,161.60
2018-12-09T09:08:55.388Z,160.00
2018-12-09T09:11:31.417Z,161.00
2018-12-09T09:14:07.745Z,156.00
2018-12-09T09:16:44.735Z,148.60
2018-12-09T09:22:20.795Z,178.00
2018-12-09T09:24:57.327Z,169.20
2018-12-09T09:27:31.155Z,160.00
2018-12-09T09:30:06.790Z,176.20
2018-12-09T09:32:42.337Z,181.80
2018-12-09T09:38:15.662Z,164.20
2018-12-09T09:40:51.086Z,164.00
2018-12-09T09:43:27.440Z,174.60
2018-12-09T09:46:13.805Z,170.40
2018-12-09T09:48:50.353Z,167.80
2018-12-09T09:51:23.527Z,148.60
2018-12-09T09:54:05.662Z,168.00
2018-12-09T09:56:42.003Z,149.20
2018-12-09T09:59:17.189Z,146.60
2018-12-09T10:01:51.726Z,174.60
2018-12-09T10:04:26.953Z,143.40
2018-12-09T10:07:02.018Z,131.40
2018-12-09T10:09:38.106Z,146.80
2018-12-09T10:12:26.188Z,157.00
2018-12-09T10:17:29.023Z,150.80
2018-12-09T10:20:06.029Z,170.20
2018-12-09T10:22:42.512Z,145.20
2018-12-09T10:25:20.694Z,142.80
2018-12-09T10:27:56.517Z,138.00
2018-12-09T10:30:31.933Z,150.00
2018-12-09T10:36:07.914Z,153.60
2018-12-09T10:38:43.678Z,145.00
2018-12-09T10:41:20.175Z,146.60
2018-12-09T10:43:52.018Z,154.40
2018-12-09T10:46:33.611Z,147.40
2018-12-09T10:49:08.419Z,148.40
2018-12-09T10:51:45.149Z,171.20
2018-12-09T10:57:18.257Z,158.20
2018-12-09T10:59:54.806Z,170.40
2018-12-09T11:02:31.831Z,164.60
2018-12-09T11:05:09.467Z,153.60
2018-12-09T11:07:42.130Z,156.80
2018-12-09T11:10:18.902Z,158.60
2018-12-09T11:12:50.749Z,152.40
2018-12-09T11:15:24.218Z,140.40
2018-12-09T11:17:59.588Z,154.80
2018-12-09T11:20:37.548Z,145.20
2018-12-09T11:23:10.993Z,154.00
2018-12-09T11:25:47.023Z,136.20
2018-12-09T11:28:25.985Z,153.20
2018-12-09T11:31:02.699Z,157.20
2018-12-09T11:33:35.962Z,154.20
2018-12-09T11:39:19.389Z,160.20
2018-12-09T11:42:01.126Z,162.40
2018-12-09T11:44:37.164Z,144.00
2018-12-09T11:47:21.586Z,155.20
2018-12-09T11:49:55.335Z,146.60
2018-12-09T11:52:37.645Z,146.20
2018-12-09T11:55:13.826Z,159.80
2018-12-09T11:57:48.870Z,167.80
2018-12-09T12:00:25.513Z,169.80
2018-12-09T12:03:00.696Z,157.80
2018-12-09T12:05:36.101Z,147.20
2018-12-09T12:08:12.958Z,135.40
2018-12-09T12:10:47.796Z,142.00
2018-12-09T12:13:30.677Z,143.60
2018-12-09T12:25:46.250Z,160.20
2018-12-09T12:28:27.150Z,160.20
2018-12-09T12:31:12.431Z,165.20
2018-12-09T12:59:19.876Z,207.40
2018-12-09T13:02:01.177Z,188.60
2018-12-09T13:04:36.333Z,220.20
2018-12-09T13:07:11.854Z,241.25
2018-12-09T13:09:54.556Z,253.25
2018-12-09T13:12:31.738Z,241.75
2018-12-09T13:15:08.286Z,217.50
2018-12-09T13:17:43.080Z,245.00
2018-12-09T13:20:19.975Z,254.00
2018-12-09T13:22:55.502Z,257.50
2018-12-09T13:25:30.869Z,257.50
2018-12-09T13:28:06.065Z,273.25
2018-12-09T13:30:41.184Z,265.00
2018-12-09T13:33:16.412Z,269.25
2018-12-09T13:35:50.180Z,279.75
2018-12-09T13:38:26.340Z,241.50
2018-12-09T13:41:02.734Z,320.25
2018-12-09T13:43:38.744Z,301.50
2018-12-09T13:46:13.740Z,326.50
2018-12-09T13:48:48.516Z,315.25
2018-12-09T13:51:26.393Z,311.50
2018-12-09T13:54:01.189Z,314.00
2018-12-09T13:56:40.115Z,311.75
2018-12-09T13:59:18.312Z,330.50
2018-12-09T14:01:54.306Z,354.50
2018-12-09T14:04:27.920Z,344.00
2018-12-09T14:07:04.877Z,346.25
2018-12-09T14:09:42.307Z,333.50
2018-12-09T14:12:16.898Z,333.75
2018-12-09T14:14:53.476Z,361.25
2018-12-09T14:17:28.324Z,356.75
2018-12-09T14:20:03.072Z,381.75
2018-12-09T14:22:37.653Z,396.25
2018-12-09T14:25:10.726Z,377.25
2018-12-09T14:27:44.006Z,370.25
2018-12-09T14:30:20.001Z,385.25
2018-12-09T14:32:54.686Z,392.25
2018-12-09T14:35:36.096Z,421.25
2018-12-09T14:38:10.761Z,398.00
2018-12-09T14:40:45.692Z,403.20
2018-12-09T14:43:20.884Z,426.40
2018-12-09T14:45:55.908Z,432.00
2018-12-09T14:48:31.001Z,441.40
2018-12-09T14:51:06.666Z,469.20
2018-12-09T14:53:42.697Z,465.80
2018-12-09T14:56:17.914Z,468.00
2018-12-09T14:58:52.638Z,470.40
2018-12-09T15:01:25.747Z,473.80
2018-12-09T15:04:00.960Z,482.20
2018-12-09T15:06:37.385Z,471.20
2018-12-09T15:09:12.150Z,502.40
2018-12-09T15:11:47.178Z,492.00
2018-12-09T15:14:23.879Z,490.40
2018-12-09T15:16:58.386Z,480.40
2018-12-09T15:19:31.487Z,508.40
2018-12-09T15:22:06.656Z,516.80
2018-12-09T15:24:41.963Z,533.40
2018-12-09T15:27:16.891Z,485.80
2018-12-09T15:29:52.040Z,526.20
2018-12-09T15:32:28.005Z,510.00
2018-12-09T15:35:08.820Z,508.00
2018-12-09T15:37:45.606Z,536.60
2018-12-09T15:40:21.580Z,468.00
2018-12-09T15:42:59.508Z,528.40
2018-12-09T15:45:32.817Z,501.60
2018-12-09T15:48:11.289Z,504.20
2018-12-09T15:50:49.640Z,506.00
2018-12-09T15:53:26.330Z,523.80
2018-12-09T15:56:03.372Z,533.00
2018-12-09T15:58:39.862Z,532.00
2018-12-09T16:01:14.888Z,484.60
2018-12-09T16:03:49.861Z,541.40
2018-12-09T16:06:25.041Z,533.40
2018-12-09T16:09:00.156Z,519.60
2018-12-09T16:11:36.948Z,522.40
2018-12-09T16:14:11.422Z,557.80
2018-12-09T16:16:44.849Z,523.00
2018-12-09T16:19:21.478Z,546.00
2018-12-09T16:21:56.112Z,503.80
2018-12-09T16:24:31.197Z,522.80
2018-12-09T16:27:07.747Z,536.80
2018-12-09T16:29:42.133Z,538.80
2018-12-09T16:32:16.624Z,508.20
2018-12-09T16:34:51.744Z,537.20
2018-12-09T16:37:28.249Z,535.60
2018-12-09T16:40:03.322Z,487.80
2018-12-09T16:42:36.994Z,527.50
2018-12-09T16:45:13.520Z,510.00
2018-12-09T16:47:49.030Z,490.50
2018-12-09T16:50:25.845Z,492.00
2018-12-09T16:52:59.164Z,505.40
2018-12-09T16:55:34.205Z,478.60
2018-12-09T16:58:09.541Z,456.80
2018-12-09T17:00:46.187Z,469.00
2018-12-09T17:03:21.591Z,461.60
2018-12-09T17:05:56.439Z,468.80
2018-12-09T17:08:29.706Z,452.20
2018-12-09T17:11:07.452Z,465.20
2018-12-09T17:13:40.842Z,465.20
2018-12-09T17:16:14.380Z,461.40
2018-12-09T17:18:46.085Z,465.25
2018-12-09T17:21:17.783Z,469.20
2018-12-09T17:23:49.313Z,448.25
2018-12-09T17:26:21.190Z,461.00
2018-12-09T17:28:53.801Z,454.00
2018-12-09T17:31:25.441Z,445.25
2018-12-09T17:33:57.087Z,449.80
2018-12-09T17:36:28.543Z,425.50
2018-12-09T17:39:01.324Z,461.25
2018-12-09T17:41:35.550Z,438.20
2018-12-09T17:44:08.576Z,447.25
2018-12-09T17:46:41.157Z,430.50
2018-12-09T17:49:19.557Z,463.25
2018-12-09T17:51:52.983Z,439.75
2018-12-09T17:54:24.643Z,409.00
2018-12-09T17:56:58.145Z,418.75
2018-12-09T17:59:31.185Z,442.75
2018-12-09T18:02:02.778Z,430.75
2018-12-09T18:04:36.538Z,426.25
2018-12-09T18:07:08.216Z,452.25
2018-12-09T18:09:40.703Z,452.75
2018-12-09T18:12:14.682Z,431.50
2018-12-09T18:14:47.318Z,407.00
2018-12-09T18:17:19.841Z,424.50
2018-12-09T18:19:51.404Z,396.25
2018-12-09T18:22:24.170Z,415.50
2018-12-09T18:24:55.772Z,459.50
2018-12-09T18:27:28.329Z,425.75
2018-12-09T18:30:00.796Z,424.50
2018-12-09T18:32:32.387Z,394.00
2018-12-09T18:35:04.088Z,443.75
2018-12-09T18:37:36.815Z,405.00
2018-12-09T18:40:11.195Z,428.00
2018-12-09T18:42:42.986Z,418.25
2018-12-09T18:45:16.668Z,420.50
2018-12-09T18:47:48.212Z,428.25
2018-12-09T18:50:19.990Z,406.50
2018-12-09T18:52:51.617Z,409.00
2018-12-09T18:55:24.078Z,385.75
2018-12-09T18:57:55.668Z,426.75
2018-12-09T19:00:28.337Z,420.25
2018-12-09T19:03:00.067Z,389.00
2018-12-09T19:05:33.489Z,389.00
2018-12-09T19:08:06.033Z,372.25
2018-12-09T19:10:37.829Z,401.00
2018-12-09T19:13:09.768Z,396.50
2018-12-09T19:15:42.265Z,399.00
2018-12-09T19:18:13.703Z,380.75
2018-12-09T19:20:45.192Z,393.50
2018-12-09T19:23:16.581Z,411.00
2018-12-09T19:25:48.326Z,408.50
2018-12-09T19:28:19.789Z,386.50
2018-12-09T19:30:52.243Z,351.25
2018-12-09T19:33:23.673Z,373.50
2018-12-09T19:35:56.385Z,404.25
2018-12-09T19:38:27.778Z,407.75
2018-12-09T19:40:59.273Z,381.75
2018-12-09T19:43:31.310Z,399.25
2018-12-09T19:46:03.149Z,403.25
2018-12-09T19:48:34.691Z,397.25
2018-12-09T19:51:06.442Z,397.50
2018-12-09T19:53:38.849Z,409.50
2018-12-09T19:56:10.356Z,408.75
2018-12-09T19:58:41.618Z,407.25
2018-12-09T20:01:13.892Z,423.75
2018-12-09T20:03:45.358Z,408.75
2018-12-09T20:06:15.431Z,389.25
2018-12-09T20:08:46.907Z,398.00
2018-12-09T20:11:18.538Z,417.75
2018-12-09T20:13:50.359Z,406.75
2018-12-09T20:16:22.930Z,401.75
2018-12-09T20:18:54.283Z,388.25
2018-12-09T20:21:25.796Z,375.25
2018-12-09T20:23:57.348Z,388.50
2018-12-09T20:26:28.853Z,405.50
2018-12-09T20:29:00.215Z,421.00
2018-12-09T20:31:32.866Z,404.75
2018-12-09T20:34:05.292Z,404.00
2018-12-09T20:36:36.981Z,416.25
2018-12-09T20:39:09.729Z,414.75
2018-12-09T20:41:42.299Z,359.25
2018-12-09T20:44:14.443Z,382.50
2018-12-09T20:46:46.318Z,410.00
2018-12-09T20:49:18.862Z,397.00
2018-12-09T20:51:50.296Z,425.75
2018-12-09T20:54:21.803Z,394.75
2018-12-09T20:56:53.465Z,385.50
2018-12-09T20:59:24.934Z,409.00
2018-12-09T21:01:57.032Z,387.50
2018-12-09T21:04:28.734Z,422.50
2018-12-09T21:07:00.364Z,424.00
2018-12-09T21:09:33.707Z,393.75
2018-12-09T21:12:05.154Z,401.75
2018-12-09T21:14:37.089Z,430.75
2018-12-09T21:17:08.901Z,415.50
2018-12-09T21:19:40.451Z,400.25
2018-12-09T21:22:12.010Z,402.50
2018-12-09T21:24:43.495Z,420.00
2018-12-09T21:27:15.035Z,401.75
2018-12-09T21:29:46.702Z,429.75
2018-12-09T21:32:18.487Z,394.25
2018-12-09T21:34:49.953Z,427.50
2018-12-09T21:37:22.606Z,402.75
2018-12-09T21:39:54.295Z,403.00
2018-12-09T21:42:25.820Z,389.25
2018-12-09T21:44:57.816Z,396.75
2018-12-09T21:47:30.993Z,423.50
2018-12-09T21:50:02.605Z,381.00
2018-12-09T21:52:34.720Z,378.25
2018-12-09T21:55:07.117Z,397.25
2018-12-09T21:57:38.817Z,396.25
2018-12-09T22:00:10.755Z,449.75
2018-12-09T22:02:44.493Z,383.50
2018-12-09T22:05:16.030Z,416.50
2018-12-09T22:07:48.628Z,390.25
2018-12-09T22:10:20.095Z,416.50
2018-12-09T22:12:53.014Z,426.75
2018-12-09T22:15:25.411Z,435.50
2018-12-09T22:17:57.171Z,424.00
2018-12-09T22:20:28.800Z,420.75
2018-12-09T22:23:00.276Z,473.00
2018-12-09T22:25:31.873Z,444.50
2018-12-09T22:28:03.340Z,424.25
2018-12-09T22:30:34.856Z,418.00
2018-12-09T22:33:06.679Z,449.00
2018-12-09T22:35:38.157Z,439.75
2018-12-09T22:38:09.707Z,436.00
2018-12-09T22:40:40.959Z,450.75
2018-12-09T22:43:12.594Z,391.50
2018-12-09T22:45:44.592Z,415.00
2018-12-09T22:48:16.219Z,405.75
2018-12-09T22:50:47.934Z,420.50
2018-12-09T22:53:19.473Z,428.00
2018-12-09T22:55:51.013Z,424.25
2018-12-09T22:58:22.605Z,414.50
2018-12-09T23:01:00.117Z,415.75
2018-12-09T23:03:34.134Z,391.75
2018-12-09T23:06:05.681Z,393.75
2018-12-09T23:08:37.288Z,404.75
2018-12-09T23:11:11.025Z,421.25
2018-12-09T23:13:42.674Z,392.50
2018-12-09T23:16:15.598Z,387.50
2018-12-09T23:18:47.107Z,412.25
2018-12-09T23:21:18.852Z,427.50
2018-12-09T23:23:50.780Z,410.25
2018-12-09T23:26:22.276Z,432.00
2018-12-09T23:28:53.718Z,393.25
2018-12-09T23:31:25.796Z,404.25
2018-12-09T23:33:58.054Z,409.50
2018-12-09T23:36:29.852Z,431.75
2018-12-09T23:39:01.695Z,431.25
2018-12-09T23:41:35.474Z,429.75
2018-12-09T23:44:10.239Z,400.00
2018-12-09T23:46:42.598Z,418.75
2018-12-09T23:49:14.310Z,419.50
2018-12-09T23:51:45.863Z,425.50
2018-12-09T23:54:17.575Z,356.50
2018-12-09T23:56:49.464Z,401.25
2018-12-09T23:59:24.296Z,415.00
